Time;durP1;ratioP1;P1;durP2;ratioP2;P2;SDS_P1;SDS_P2;PMS_P1;PMS_P2;Temp;Humidity;BMP_temperature;BMP_pressure;BME280_temperature;BME280_humidity;BME280_pressure;Samples;Min_cycle;Max_cycle;Signal;HPM_P1;HPM_P2
2022/07/18 00:00:38;;;;;;;7.93;4.95;;;19.60;99.60;;;;;;5079610;28;20012;-79
2022/07/18 00:03:03;;;;;;;5.20;3.95;;;19.60;99.30;;;;;;5092393;28;20024;-78
2022/07/18 00:05:29;;;;;;;5.07;4.40;;;19.50;99.10;;;;;;5093294;28;20035;-77
2022/07/18 00:07:54;;;;;;;5.85;4.13;;;19.50;98.80;;;;;;5093925;28;20115;-78
2022/07/18 00:10:20;;;;;;;5.22;4.40;;;19.50;98.60;;;;;;5093616;28;20052;-77
2022/07/18 00:12:45;;;;;;;7.57;4.60;;;19.50;98.30;;;;;;5092502;28;20023;-78
2022/07/18 00:15:11;;;;;;;4.93;4.18;;;19.50;98.20;;;;;;5093240;28;20020;-77
2022/07/18 00:17:37;;;;;;;4.82;4.32;;;19.40;97.90;;;;;;5092455;28;20387;-78
2022/07/18 00:20:08;;;;;;;4.85;3.92;;;19.40;97.80;;;;;;5093385;28;20363;-78
2022/07/18 00:22:34;;;;;;;5.10;4.55;;;19.40;97.50;;;;;;5093470;28;20024;-77
2022/07/18 00:25:00;;;;;;;6.43;4.47;;;19.40;97.20;;;;;;5092307;28;20027;-78
2022/07/18 00:27:25;;;;;;;6.55;4.38;;;19.40;97.20;;;;;;5093256;28;20024;-78
2022/07/18 00:29:51;;;;;;;5.57;4.10;;;19.40;97.20;;;;;;5092580;28;20031;-78
2022/07/18 00:32:16;;;;;;;6.60;4.40;;;19.40;97.10;;;;;;5080234;28;20020;-77
2022/07/18 00:34:42;;;;;;;5.40;4.00;;;19.40;97.10;;;;;;5090533;28;20019;-78
2022/07/18 00:37:07;;;;;;;4.78;4.30;;;19.40;97.10;;;;;;5092297;28;20033;-77
2022/07/18 00:39:33;;;;;;;6.03;4.85;;;19.30;97.00;;;;;;5092274;28;20053;-77
2022/07/18 00:41:59;;;;;;;6.22;4.82;;;19.30;96.90;;;;;;5093564;28;20012;-78
2022/07/18 00:44:27;;;;;;;6.10;4.68;;;19.30;96.70;;;;;;5093294;28;20111;-78
2022/07/18 00:46:55;;;;;;;4.43;4.03;;;19.30;96.60;;;;;;5094257;28;20055;-76
2022/07/18 00:49:21;;;;;;;6.13;4.57;;;19.30;96.60;;;;;;5097204;28;20077;-76
2022/07/18 00:51:47;;;;;;;4.80;4.30;;;19.20;96.50;;;;;;5096753;28;20024;-77
2022/07/18 00:54:13;;;;;;;5.72;4.07;;;19.20;96.60;;;;;;5096987;28;20378;-77
2022/07/18 00:56:40;;;;;;;8.60;4.13;;;19.20;96.30;;;;;;5097522;28;20036;-79
2022/07/18 00:59:06;;;;;;;6.05;4.05;;;19.20;96.20;;;;;;5092776;28;20468;-76
2022/07/18 01:01:45;;;;;;;5.32;4.43;;;19.10;96.30;;;;;;5087925;28;20049;-78
2022/07/18 01:04:22;;;;;;;5.00;4.25;;;19.00;96.30;;;;;;5096725;28;20032;-78
2022/07/18 01:06:50;;;;;;;6.43;4.03;;;19.10;96.40;;;;;;5096472;28;20036;-78
2022/07/18 01:09:17;;;;;;;7.60;4.88;;;19.00;96.50;;;;;;5096256;28;20127;-78
2022/07/18 01:11:44;;;;;;;7.45;5.13;;;19.00;96.50;;;;;;5096695;28;20038;-78
2022/07/18 01:14:10;;;;;;;8.48;4.80;;;19.00;96.50;;;;;;5095402;28;20751;-78
2022/07/18 01:16:36;;;;;;;5.80;4.45;;;19.00;96.50;;;;;;5097020;28;20028;-77
2022/07/18 01:19:03;;;;;;;5.20;4.70;;;19.00;96.50;;;;;;5097057;28;20503;-78
2022/07/18 01:21:28;;;;;;;9.25;4.20;;;19.00;96.50;;;;;;5096569;28;20032;-77
2022/07/18 01:23:54;;;;;;;5.80;4.80;;;18.90;96.70;;;;;;5097540;28;20038;-77
2022/07/18 01:26:20;;;;;;;4.18;3.78;;;18.90;96.60;;;;;;5107900;28;20062;-76
2022/07/18 01:28:46;;;;;;;7.43;4.63;;;18.90;96.80;;;;;;5097044;28;20028;-76
2022/07/18 01:31:12;;;;;;;6.15;4.15;;;18.80;96.90;;;;;;5096095;28;21769;-77
2022/07/18 01:33:38;;;;;;;6.28;4.85;;;18.80;96.90;;;;;;5096124;28;20066;-77
2022/07/18 01:36:06;;;;;;;8.05;5.18;;;18.80;97.00;;;;;;5094816;28;20039;-77
2022/07/18 01:38:34;;;;;;;5.20;4.68;;;18.80;97.20;;;;;;5083883;28;20032;-77
2022/07/18 01:40:59;;;;;;;5.35;4.15;;;18.70;96.90;;;;;;5083260;28;20024;-79
2022/07/18 01:43:26;;;;;;;4.82;4.43;;;18.70;96.90;;;;;;5094841;28;20028;-77
2022/07/18 01:45:53;;;;;;;5.28;4.68;;;18.70;96.90;;;;;;5095242;28;20032;-77
2022/07/18 01:48:19;;;;;;;5.10;4.45;;;18.70;96.80;;;;;;5095471;28;20020;-77
2022/07/18 01:50:44;;;;;;;7.38;4.35;;;18.70;96.70;;;;;;5095283;28;20027;-77
2022/07/18 01:53:10;;;;;;;4.70;4.30;;;18.70;96.50;;;;;;5095870;28;20106;-78
2022/07/18 01:55:36;;;;;;;10.15;5.13;;;18.60;96.50;;;;;;5095238;28;20028;-77
2022/07/18 01:58:01;;;;;;;5.18;4.10;;;18.60;96.50;;;;;;5094788;28;20039;-78
2022/07/18 02:00:27;;;;;;;7.68;4.35;;;18.60;96.60;;;;;;5081322;28;20094;-78
2022/07/18 02:02:52;;;;;;;6.75;5.13;;;18.70;96.70;;;;;;5094757;28;20031;-76
2022/07/18 02:05:18;;;;;;;6.10;5.10;;;18.60;96.60;;;;;;5094930;28;20024;-78
2022/07/18 02:07:44;;;;;;;8.63;4.47;;;18.60;96.70;;;;;;5095376;28;20027;-75
2022/07/18 02:10:17;;;;;;;6.80;4.80;;;18.50;96.80;;;;;;5092999;28;20097;-77
2022/07/18 02:12:42;;;;;;;5.85;4.65;;;18.50;96.90;;;;;;5077357;28;20028;-77
2022/07/18 02:15:10;;;;;;;7.25;4.55;;;18.50;97.00;;;;;;5083378;28;20028;-77
2022/07/18 02:17:37;;;;;;;10.75;4.43;;;18.50;97.10;;;;;;5074429;28;20385;-77
2022/07/18 02:20:05;;;;;;;7.68;4.72;;;18.40;97.30;;;;;;5088471;28;20383;-76
2022/07/18 02:22:31;;;;;;;7.00;4.20;;;18.30;97.50;;;;;;5083748;28;20028;-77
2022/07/18 02:24:56;;;;;;;5.72;5.22;;;18.30;97.60;;;;;;5093476;28;20032;-77
2022/07/18 02:27:22;;;;;;;5.35;4.85;;;18.30;97.70;;;;;;5094099;28;20077;-76
2022/07/18 02:29:48;;;;;;;8.32;4.97;;;18.20;97.70;;;;;;5081612;28;20024;-76
2022/07/18 02:32:13;;;;;;;7.57;5.10;;;18.30;97.80;;;;;;5091510;28;20467;-78
2022/07/18 02:34:40;;;;;;;6.00;5.40;;;18.30;97.90;;;;;;5093903;28;20427;-77
2022/07/18 02:37:06;;;;;;;6.97;4.93;;;18.20;97.90;;;;;;5093690;28;20127;-76
2022/07/18 02:39:32;;;;;;;7.60;5.03;;;18.20;98.00;;;;;;5093522;28;20155;-77
2022/07/18 02:41:57;;;;;;;7.65;4.53;;;18.20;98.20;;;;;;5094183;28;20485;-79
2022/07/18 02:44:23;;;;;;;5.30;4.75;;;18.20;98.30;;;;;;5095072;28;20026;-78
2022/07/18 02:46:49;;;;;;;6.88;5.70;;;18.10;98.30;;;;;;5081442;28;20017;-77
2022/07/18 02:49:27;;;;;;;7.18;5.13;;;18.10;98.40;;;;;;5092061;28;20031;-78
2022/07/18 02:52:13;;;;;;;6.80;5.05;;;18.10;98.40;;;;;;5093461;28;20024;-76
2022/07/18 02:54:39;;;;;;;10.40;5.30;;;18.00;98.60;;;;;;5094293;28;20309;-79
2022/07/18 02:57:05;;;;;;;5.75;4.65;;;18.00;98.70;;;;;;5093950;28;20050;-79
2022/07/18 02:59:31;;;;;;;5.25;4.70;;;18.00;98.70;;;;;;5093497;28;20498;-78
2022/07/18 03:01:57;;;;;;;8.38;5.05;;;17.90;98.70;;;;;;5093963;28;20066;-78
2022/07/18 03:04:23;;;;;;;5.55;4.72;;;18.00;98.70;;;;;;5092953;28;20045;-79
2022/07/18 03:06:51;;;;;;;7.90;5.05;;;18.00;98.70;;;;;;5092384;28;20032;-79
2022/07/18 03:09:18;;;;;;;6.70;5.03;;;18.00;98.70;;;;;;5092527;28;20044;-79
2022/07/18 03:11:43;;;;;;;9.30;5.50;;;18.00;98.80;;;;;;5092799;28;20095;-78
2022/07/18 03:14:09;;;;;;;6.82;5.13;;;18.00;98.90;;;;;;5093717;28;20024;-77
2022/07/18 03:16:35;;;;;;;7.63;5.28;;;18.00;98.90;;;;;;5098578;28;20028;-78
2022/07/18 03:19:01;;;;;;;7.72;5.28;;;18.00;99.00;;;;;;5083072;28;20067;-78
2022/07/18 03:21:26;;;;;;;5.93;5.32;;;18.00;98.90;;;;;;5088868;28;20024;-79
2022/07/18 03:23:52;;;;;;;8.13;5.38;;;18.00;98.80;;;;;;5093666;28;20151;-79
2022/07/18 03:26:18;;;;;;;7.78;6.40;;;18.00;98.80;;;;;;5093684;28;20099;-79
2022/07/18 03:28:43;;;;;;;9.25;5.82;;;18.00;98.80;;;;;;5093089;28;20020;-79
2022/07/18 03:31:09;;;;;;;9.35;6.03;;;18.00;98.80;;;;;;5093312;28;20036;-79
2022/07/18 03:33:34;;;;;;;5.10;4.57;;;18.00;98.70;;;;;;5093622;28;20024;-78
2022/07/18 03:36:00;;;;;;;8.50;5.00;;;17.90;98.80;;;;;;5092726;28;20368;-78
2022/07/18 03:38:26;;;;;;;7.07;5.72;;;17.90;98.80;;;;;;5093209;28;20483;-78
2022/07/18 03:40:51;;;;;;;7.43;5.55;;;17.90;99.00;;;;;;5092917;28;20028;-77
2022/07/18 03:43:17;;;;;;;8.75;4.95;;;17.90;99.20;;;;;;5093078;28;20035;-77
2022/07/18 03:45:42;;;;;;;7.75;5.65;;;17.90;99.30;;;;;;5093279;28;20118;-79
2022/07/18 03:48:08;;;;;;;6.68;5.85;;;17.90;99.40;;;;;;5092416;28;20503;-79
2022/07/18 03:50:33;;;;;;;6.75;5.60;;;17.80;99.50;;;;;;5094144;28;20023;-78
2022/07/18 03:52:59;;;;;;;7.85;5.85;;;17.80;99.50;;;;;;5093180;28;20027;-78
2022/07/18 03:55:25;;;;;;;7.45;6.35;;;17.80;99.60;;;;;;5092316;28;20366;-77
2022/07/18 03:57:50;;;;;;;7.20;6.40;;;17.80;99.50;;;;;;5092786;28;20038;-78
2022/07/18 04:00:16;;;;;;;8.30;6.43;;;17.80;99.40;;;;;;5092580;28;20107;-77
2022/07/18 04:02:43;;;;;;;9.65;7.07;;;17.80;99.20;;;;;;5091714;28;20475;-78
2022/07/18 04:05:10;;;;;;;6.88;6.00;;;17.70;99.10;;;;;;5093250;28;20024;-78
2022/07/18 04:07:37;;;;;;;8.73;6.75;;;17.70;99.00;;;;;;5092450;28;20020;-78
2022/07/18 04:10:05;;;;;;;7.97;6.57;;;17.80;98.90;;;;;;5092306;28;20094;-78
2022/07/18 04:12:30;;;;;;;12.50;6.57;;;17.80;98.90;;;;;;5093223;28;20031;-78
2022/07/18 04:14:56;;;;;;;10.18;6.93;;;17.80;98.80;;;;;;5092864;28;20374;-78
2022/07/18 04:17:22;;;;;;;9.07;7.18;;;17.80;98.90;;;;;;5091557;28;20032;-78
2022/07/18 04:19:47;;;;;;;10.00;7.57;;;17.80;98.80;;;;;;5078184;28;20073;-77
2022/07/18 04:22:13;;;;;;;10.55;7.15;;;17.80;99.00;;;;;;5097453;28;20110;-77
2022/07/18 04:24:39;;;;;;;9.63;7.80;;;17.80;99.10;;;;;;5098528;28;20460;-78
2022/07/18 04:27:04;;;;;;;12.45;7.63;;;17.80;99.00;;;;;;5092378;28;20456;-78
2022/07/18 04:29:31;;;;;;;11.30;7.30;;;17.80;99.10;;;;;;5091376;28;20534;-79
2022/07/18 04:31:58;;;;;;;14.88;7.20;;;17.80;99.10;;;;;;5080399;28;20020;-78
2022/07/18 04:34:23;;;;;;;8.18;6.47;;;17.80;99.20;;;;;;5099354;28;20027;-78
2022/07/18 04:36:49;;;;;;;9.07;7.03;;;17.80;99.20;;;;;;5099109;28;20028;-79
2022/07/18 04:39:16;;;;;;;16.55;7.97;;;17.80;99.10;;;;;;5090144;28;20040;-79
2022/07/18 04:41:42;;;;;;;9.88;6.90;;;17.90;99.00;;;;;;5094009;28;20035;-78
2022/07/18 04:44:07;;;;;;;10.52;7.35;;;17.90;98.80;;;;;;5098961;28;20027;-77
2022/07/18 04:46:33;;;;;;;9.15;7.65;;;18.00;98.70;;;;;;5099052;28;20097;-77
2022/07/18 04:48:59;;;;;;;9.70;7.57;;;18.00;98.70;;;;;;5099592;28;20031;-78
2022/07/18 04:51:24;;;;;;;13.93;8.18;;;18.00;98.70;;;;;;5097900;28;20406;-78
2022/07/18 04:53:50;;;;;;;11.02;7.70;;;18.00;98.70;;;;;;5098195;28;20062;-77
2022/07/18 04:56:15;;;;;;;12.77;7.57;;;18.00;98.80;;;;;;5098610;28;20069;-79
2022/07/18 04:58:41;;;;;;;9.38;7.78;;;18.10;98.80;;;;;;5098489;28;20070;-78
2022/07/18 05:01:06;;;;;;;9.93;6.95;;;18.10;98.80;;;;;;5103544;28;20016;-78
2022/07/18 05:03:32;;;;;;;7.75;6.70;;;18.20;98.80;;;;;;5109264;28;20028;-75
2022/07/18 05:05:57;;;;;;;14.50;7.75;;;18.20;98.80;;;;;;5097885;28;20016;-78
2022/07/18 05:08:23;;;;;;;14.27;8.38;;;18.20;98.80;;;;;;5098577;28;20455;-77
2022/07/18 05:10:49;;;;;;;12.55;7.50;;;18.30;98.80;;;;;;5097920;28;20043;-77
2022/07/18 05:13:14;;;;;;;19.02;8.77;;;18.30;98.80;;;;;;5097713;28;20032;-78
2022/07/18 05:15:40;;;;;;;8.02;6.93;;;18.40;98.70;;;;;;5097966;28;20024;-78
2022/07/18 05:18:06;;;;;;;12.20;7.95;;;18.50;98.80;;;;;;5095586;28;20035;-77
2022/07/18 05:20:31;;;;;;;21.85;8.30;;;18.50;98.70;;;;;;5086620;28;20024;-78
2022/07/18 05:22:57;;;;;;;11.18;6.90;;;18.60;98.60;;;;;;5098609;28;20119;-78
2022/07/18 05:25:23;;;;;;;11.00;7.60;;;18.60;98.50;;;;;;5098869;28;20035;-78
2022/07/18 05:27:50;;;;;;;11.40;8.27;;;18.70;98.40;;;;;;5098242;28;20031;-78
2022/07/18 05:30:15;;;;;;;12.85;7.97;;;18.80;98.20;;;;;;5098873;28;20050;-78
2022/07/18 05:32:43;;;;;;;13.75;9.10;;;18.90;98.10;;;;;;5097663;28;20024;-78
2022/07/18 05:35:10;;;;;;;18.85;8.00;;;18.90;98.00;;;;;;5095076;28;20044;-77
2022/07/18 05:37:37;;;;;;;12.57;7.45;;;19.00;98.00;;;;;;5095954;28;20089;-77
2022/07/18 05:40:04;;;;;;;17.30;7.47;;;19.10;98.00;;;;;;5076916;28;20020;-78
2022/07/18 05:42:29;;;;;;;15.02;7.55;;;19.20;97.70;;;;;;5094840;28;20032;-78
2022/07/18 05:44:55;;;;;;;26.10;8.98;;;19.20;97.60;;;;;;5095171;28;20016;-77
2022/07/18 05:47:21;;;;;;;19.10;7.75;;;19.40;97.40;;;;;;5095071;28;20104;-77
2022/07/18 05:49:46;;;;;;;18.77;8.48;;;19.50;97.20;;;;;;5094146;28;20245;-78
2022/07/18 05:52:12;;;;;;;17.45;7.90;;;19.50;97.20;;;;;;5094666;28;20023;-78
2022/07/18 05:54:37;;;;;;;23.27;8.80;;;19.60;97.00;;;;;;5095060;28;20020;-78
2022/07/18 05:57:03;;;;;;;16.63;8.68;;;19.60;96.80;;;;;;5092120;28;20036;-78
2022/07/18 05:59:28;;;;;;;10.95;7.93;;;19.70;96.70;;;;;;5073857;28;20032;-78
2022/07/18 06:01:54;;;;;;;14.75;7.93;;;20.50;96.80;;;;;;5072770;28;20059;-78
2022/07/18 06:04:20;;;;;;;14.68;8.00;;;19.80;96.70;;;;;;5073364;28;20036;-75
2022/07/18 06:06:45;;;;;;;12.75;7.63;;;19.80;96.70;;;;;;5077028;28;20029;-77
2022/07/18 06:09:12;;;;;;;13.55;9.50;;;19.90;96.90;;;;;;5072299;28;20106;-78
2022/07/18 06:11:38;;;;;;;9.85;8.10;;;19.90;97.20;;;;;;5079418;28;20070;-76
2022/07/18 06:14:03;;;;;;;8.15;6.97;;;20.00;97.40;;;;;;5072695;28;20017;-77
2022/07/18 06:16:30;;;;;;;9.25;8.25;;;20.10;97.50;;;;;;5074844;28;20416;-76
2022/07/18 06:18:56;;;;;;;9.80;8.18;;;20.10;97.60;;;;;;5070931;28;20044;-76
2022/07/18 06:21:22;;;;;;;10.32;7.80;;;20.10;97.60;;;;;;5072845;28;20017;-78
2022/07/18 06:23:48;;;;;;;12.05;7.95;;;20.20;97.60;;;;;;5072420;28;20023;-77
2022/07/18 06:26:13;;;;;;;9.65;7.75;;;20.40;97.60;;;;;;5075459;28;20379;-77
2022/07/18 06:28:39;;;;;;;10.88;7.70;;;20.40;97.60;;;;;;5074605;28;20081;-77
2022/07/18 06:31:05;;;;;;;7.55;6.70;;;20.40;97.40;;;;;;5072126;28;20024;-77
2022/07/18 06:33:30;;;;;;;11.38;7.15;;;20.50;97.30;;;;;;5071742;28;20167;-77
2022/07/18 06:35:57;;;;;;;11.80;6.97;;;20.50;97.30;;;;;;5073720;28;20027;-76
2022/07/18 06:38:22;;;;;;;10.27;5.70;;;20.60;97.10;;;;;;5073836;28;20092;-77
2022/07/18 06:40:48;;;;;;;12.98;7.10;;;20.70;97.00;;;;;;5078748;28;20013;-77
2022/07/18 06:43:19;;;;;;;9.05;6.50;;;20.80;97.10;;;;;;5079004;28;20027;-77
2022/07/18 06:45:46;;;;;;;10.57;6.18;;;20.90;97.00;;;;;;5078862;28;20099;-77
2022/07/18 06:48:13;;;;;;;11.15;6.75;;;21.00;96.70;;;;;;5076041;28;20029;-77
2022/07/18 06:50:38;;;;;;;7.05;5.72;;;21.10;96.60;;;;;;5082343;28;20022;-77
2022/07/18 06:53:04;;;;;;;8.65;5.15;;;21.10;96.60;;;;;;5077339;28;20032;-78
2022/07/18 06:55:30;;;;;;;8.23;6.45;;;21.20;96.70;;;;;;5074837;28;20518;-79
2022/07/18 06:57:55;;;;;;;19.73;5.65;;;21.20;96.60;;;;;;5077032;28;20028;-80
2022/07/18 07:00:21;;;;;;;8.70;5.18;;;21.30;96.80;;;;;;5072568;28;20035;-79
2022/07/18 07:02:49;;;;;;;8.32;4.80;;;21.40;95.80;;;;;;5074683;28;20066;-80
2022/07/18 07:05:16;;;;;;;9.85;5.53;;;21.40;95.40;;;;;;5073169;28;20016;-79
2022/07/18 07:07:42;;;;;;;11.65;5.22;;;21.50;95.00;;;;;;5072399;28;20035;-79
2022/07/18 07:10:08;;;;;;;9.18;5.40;;;21.50;95.00;;;;;;5074718;28;20052;-77
2022/07/18 07:12:41;;;;;;;8.15;5.22;;;21.60;94.90;;;;;;5073828;28;20025;-76
2022/07/18 07:15:08;;;;;;;6.88;5.13;;;21.70;94.80;;;;;;5070720;28;20023;-79
2022/07/18 07:17:34;;;;;;;15.90;5.78;;;21.70;95.00;;;;;;5071639;28;20037;-77
2022/07/18 07:19:59;;;;;;;9.32;5.03;;;21.70;95.30;;;;;;5070221;28;20054;-78
2022/07/18 07:22:25;;;;;;;7.90;5.53;;;21.80;95.10;;;;;;5072530;28;20025;-78
2022/07/18 07:24:51;;;;;;;8.45;4.45;;;21.80;95.20;;;;;;5071945;28;20031;-79
2022/07/18 07:27:16;;;;;;;12.23;5.65;;;21.90;94.90;;;;;;5071901;28;20415;-78
2022/07/18 07:29:42;;;;;;;8.32;4.95;;;22.00;95.10;;;;;;5072972;28;20017;-79
2022/07/18 07:32:07;;;;;;;7.18;4.45;;;22.00;95.00;;;;;;5069425;28;20036;-76
2022/07/18 07:34:33;;;;;;;9.70;4.97;;;22.00;95.00;;;;;;5071033;28;20036;-76
2022/07/18 07:36:59;;;;;;;8.60;4.05;;;22.10;95.00;;;;;;5071817;28;20025;-77
2022/07/18 07:39:25;;;;;;;9.82;5.03;;;22.20;94.90;;;;;;5070768;28;20763;-75
2022/07/18 07:41:51;;;;;;;4.47;3.65;;;22.20;94.70;;;;;;5070044;28;20021;-75
2022/07/18 07:44:16;;;;;;;7.05;4.25;;;22.30;94.50;;;;;;5079329;28;20382;-74
2022/07/18 07:46:42;;;;;;;8.52;4.63;;;22.40;94.60;;;;;;5092663;28;20028;-75
2022/07/18 07:49:07;;;;;;;7.65;4.10;;;22.40;94.40;;;;;;5083044;28;20077;-74
2022/07/18 07:51:33;;;;;;;4.75;4.32;;;22.50;94.30;;;;;;5078946;28;20088;-75
2022/07/18 07:53:58;;;;;;;6.10;3.97;;;22.40;94.20;;;;;;5086783;28;20378;-77
2022/07/18 07:56:24;;;;;;;7.72;4.70;;;22.50;93.90;;;;;;5085122;28;20613;-73
2022/07/18 07:58:50;;;;;;;6.50;4.10;;;22.50;93.80;;;;;;5097198;28;20038;-74
2022/07/18 08:01:19;;;;;;;6.13;3.80;;;22.60;93.40;;;;;;5082610;28;20020;-73
2022/07/18 08:03:46;;;;;;;8.25;5.68;;;22.60;93.50;;;;;;5089918;28;20407;-73
2022/07/18 08:06:11;;;;;;;7.22;4.40;;;22.70;93.20;;;;;;5089940;28;20029;-73
2022/07/18 08:08:37;;;;;;;7.28;5.22;;;22.70;93.30;;;;;;5086845;28;20376;-72
2022/07/18 08:11:02;;;;;;;6.10;3.70;;;22.80;93.40;;;;;;5080460;28;20052;-72
2022/07/18 08:13:28;;;;;;;5.38;3.80;;;22.90;93.50;;;;;;5084592;28;20020;-74
2022/07/18 08:15:53;;;;;;;6.10;4.20;;;23.00;93.90;;;;;;5081807;28;20019;-77
2022/07/18 08:18:19;;;;;;;5.13;3.88;;;23.10;93.60;;;;;;5085256;28;20123;-74
2022/07/18 08:20:45;;;;;;;6.15;3.33;;;23.30;93.60;;;;;;5092999;28;20531;-78
2022/07/18 08:23:11;;;;;;;5.53;4.55;;;23.30;93.50;;;;;;5100867;28;20422;-79
2022/07/18 08:25:39;;;;;;;4.90;4.40;;;23.40;93.40;;;;;;5104224;28;20076;-79
2022/07/18 08:28:06;;;;;;;3.97;3.63;;;23.50;93.20;;;;;;5102118;28;20051;-80
2022/07/18 08:30:33;;;;;;;5.93;3.92;;;23.50;93.10;;;;;;5100521;28;20047;-77
2022/07/18 08:33:00;;;;;;;6.88;4.50;;;23.60;92.90;;;;;;5093650;28;20047;-76
2022/07/18 08:35:26;;;;;;;4.85;3.75;;;23.70;92.70;;;;;;5102786;28;20027;-77
2022/07/18 08:37:52;;;;;;;4.82;3.85;;;23.90;92.70;;;;;;5099478;28;20092;-76
2022/07/18 08:40:18;;;;;;;16.75;5.18;;;24.00;92.60;;;;;;5110740;28;20452;-78
2022/07/18 08:42:43;;;;;;;5.43;4.93;;;24.10;92.40;;;;;;5099719;28;20020;-80
2022/07/18 08:45:10;;;;;;;6.97;4.22;;;24.20;91.70;;;;;;5085140;28;20023;-78
2022/07/18 08:47:35;;;;;;;6.60;4.95;;;24.30;92.00;;;;;;5069566;28;20059;-78
2022/07/18 08:50:02;;;;;;;10.93;5.05;;;24.30;91.70;;;;;;5069501;28;20024;-79
2022/07/18 08:52:28;;;;;;;8.57;5.65;;;24.40;91.40;;;;;;5070520;28;20099;-79
2022/07/18 08:54:55;;;;;;;6.10;4.97;;;24.50;90.90;;;;;;5071322;28;20507;-77
2022/07/18 08:57:22;;;;;;;7.78;5.10;;;24.50;90.90;;;;;;5070718;28;20036;-78
2022/07/18 08:59:48;;;;;;;6.43;4.40;;;24.60;90.80;;;;;;5070983;28;20032;-77
2022/07/18 09:02:13;;;;;;;6.43;4.50;;;24.70;90.90;;;;;;5071844;28;20028;-78
2022/07/18 09:04:41;;;;;;;4.43;4.03;;;24.80;90.80;;;;;;5068625;28;20032;-77
2022/07/18 09:07:09;;;;;;;6.63;3.47;;;24.90;90.50;;;;;;5070500;28;20777;-78
2022/07/18 09:09:38;;;;;;;12.75;4.72;;;24.90;90.60;;;;;;5076931;28;20468;-78
2022/07/18 09:12:06;;;;;;;11.02;4.72;;;25.00;90.50;;;;;;5084124;28;20017;-78
2022/07/18 09:14:40;;;;;;;10.98;5.05;;;25.10;90.60;;;;;;5075110;28;20469;-78
2022/07/18 09:17:14;;;;;;;9.57;4.57;;;25.20;90.50;;;;;;5084200;28;20383;-78
2022/07/18 09:19:56;;;;;;;6.38;4.55;;;25.30;90.40;;;;;;5085905;28;20035;-78
2022/07/18 09:22:25;;;;;;;6.38;3.90;;;25.40;90.00;;;;;;5102875;28;20035;-77
2022/07/18 09:25:00;;;;;;;4.55;3.55;;;25.40;88.90;;;;;;5092832;28;20023;-77
2022/07/18 09:27:42;;;;;;;6.63;4.40;;;25.40;89.20;;;;;;5083246;28;20058;-77
2022/07/18 09:30:35;;;;;;;5.20;4.70;;;25.50;89.00;;;;;;5079904;28;20032;-77
2022/07/18 09:33:03;;;;;;;8.50;4.15;;;25.60;88.50;;;;;;5073719;28;20735;-77
2022/07/18 09:35:35;;;;;;;7.82;4.80;;;25.60;87.80;;;;;;5075632;28;20418;-77
2022/07/18 09:38:03;;;;;;;6.22;3.72;;;25.70;87.70;;;;;;5060634;28;20036;-78
2022/07/18 09:40:38;;;;;;;8.40;4.45;;;25.80;87.60;;;;;;5078839;28;20075;-77
2022/07/18 09:43:06;;;;;;;7.25;4.60;;;25.90;85.50;;;;;;5079238;28;20032;-77
2022/07/18 09:45:53;;;;;;;8.63;4.15;;;26.10;86.30;;;;;;5079334;28;20024;-78
2022/07/18 09:48:29;;;;;;;6.53;4.43;;;26.20;86.30;;;;;;5080259;28;20055;-79
2022/07/18 09:51:06;;;;;;;4.90;3.75;;;26.30;86.80;;;;;;5081024;28;20027;-79
2022/07/18 09:53:37;;;;;;;7.80;3.92;;;26.40;85.50;;;;;;5083257;28;20024;-80
2022/07/18 09:56:11;;;;;;;8.82;5.18;;;26.50;85.80;;;;;;5074765;28;20076;-79
2022/07/18 09:58:38;;;;;;;8.07;5.30;;;26.60;85.40;;;;;;5076526;28;20496;-77
2022/07/18 10:01:05;;;;;;;8.18;3.42;;;26.70;85.00;;;;;;5087940;28;20046;-77
2022/07/18 10:03:32;;;;;;;7.95;4.50;;;26.80;85.40;;;;;;5083963;28;20025;-77
2022/07/18 10:05:58;;;;;;;10.43;4.95;;;26.90;85.90;;;;;;5081535;28;20024;-79
2022/07/18 10:08:30;;;;;;;7.88;4.85;;;27.00;85.10;;;;;;5080848;28;20032;-77
2022/07/18 10:11:01;;;;;;;4.93;3.65;;;27.00;84.80;;;;;;5084855;28;20043;-79
2022/07/18 10:13:28;;;;;;;8.23;3.20;;;27.00;85.10;;;;;;5082362;28;20020;-79
2022/07/18 10:15:56;;;;;;;4.53;3.80;;;27.00;85.20;;;;;;5086871;28;20072;-79
2022/07/18 10:18:25;;;;;;;8.38;4.43;;;27.00;83.60;;;;;;5085734;28;20036;-79
2022/07/18 10:20:54;;;;;;;6.38;3.10;;;27.10;82.70;;;;;;5090170;28;20020;-79
2022/07/18 10:23:28;;;;;;;20.05;4.70;;;27.20;82.50;;;;;;5084776;28;20031;-78
2022/07/18 10:26:15;;;;;;;6.88;3.78;;;27.30;83.60;;;;;;5106561;28;20076;-78
2022/07/18 10:28:56;;;;;;;6.78;3.78;;;27.40;82.50;;;;;;5109603;28;20024;-79
2022/07/18 10:31:24;;;;;;;9.23;4.18;;;27.50;83.40;;;;;;5101355;28;20115;-79
2022/07/18 10:33:51;;;;;;;10.20;4.45;;;27.60;82.50;;;;;;5099713;28;20024;-79
2022/07/18 10:36:20;;;;;;;6.43;3.47;;;27.70;81.60;;;;;;5103809;28;20028;-79
2022/07/18 10:39:05;;;;;;;6.53;3.60;;;27.80;81.70;;;;;;5102804;28;20032;-79
2022/07/18 10:41:31;;;;;;;6.10;3.30;;;27.80;80.50;;;;;;5100188;28;20570;-78
2022/07/18 10:43:57;;;;;;;4.85;2.78;;;27.90;80.90;;;;;;5093875;28;20024;-79
2022/07/18 10:46:23;;;;;;;5.78;2.80;;;28.00;81.20;;;;;;5098202;28;20039;-77
2022/07/18 10:48:51;;;;;;;6.70;2.88;;;28.00;80.70;;;;;;5103173;28;20016;-79
2022/07/18 10:51:17;;;;;;;4.32;3.13;;;28.10;79.50;;;;;;5102464;28;20027;-79
2022/07/18 10:54:01;;;;;;;6.18;3.47;;;28.10;78.50;;;;;;5083553;28;20035;-79
2022/07/18 10:56:36;;;;;;;4.03;2.80;;;28.20;78.40;;;;;;5074725;28;20020;-79
2022/07/18 10:59:38;;;;;;;7.75;3.13;;;28.20;78.70;;;;;;5077508;28;20115;-80
2022/07/18 11:02:06;;;;;;;5.55;2.45;;;28.30;79.20;;;;;;5013255;28;20053;-79
2022/07/18 11:04:38;;;;;;;4.28;2.55;;;28.40;77.80;;;;;;5073320;28;20036;-79
2022/07/18 11:07:10;;;;;;;5.40;2.13;;;28.40;76.50;;;;;;5086004;28;20029;-79
2022/07/18 11:09:48;;;;;;;2.55;2.10;;;28.40;76.80;;;;;;5088972;28;20062;-78
2022/07/18 11:12:17;;;;;;;3.38;2.47;;;28.40;77.60;;;;;;5084743;28;20067;-79
2022/07/18 11:15:04;;;;;;;2.88;2.20;;;28.50;77.50;;;;;;5082188;28;20032;-79
2022/07/18 11:17:51;;;;;;;6.65;2.10;;;28.70;72.50;;;;;;5081400;28;20040;-80
2022/07/18 11:20:40;;;;;;;1.90;1.80;;;28.60;73.20;;;;;;5082954;28;20035;-80
2022/07/18 11:23:26;;;;;;;2.40;2.05;;;28.80;74.30;;;;;;5081958;28;20051;-80
2022/07/18 11:25:58;;;;;;;3.65;2.15;;;28.80;73.00;;;;;;5082711;28;20025;-79
2022/07/18 11:28:26;;;;;;;3.25;1.92;;;29.00;72.50;;;;;;5085432;28;20108;-80
2022/07/18 11:31:06;;;;;;;7.13;2.50;;;29.00;73.20;;;;;;5072970;28;20476;-79
2022/07/18 11:33:35;;;;;;;4.18;2.00;;;29.10;72.90;;;;;;5087097;28;20096;-80
2022/07/18 11:36:09;;;;;;;3.05;1.90;;;29.10;71.60;;;;;;5080248;28;20035;-80
2022/07/18 11:38:37;;;;;;;3.45;2.22;;;29.10;71.40;;;;;;5079692;28;20028;-81
2022/07/18 11:41:04;;;;;;;6.00;2.17;;;29.20;71.20;;;;;;5070634;28;20017;-80
2022/07/18 11:43:29;;;;;;;2.63;2.17;;;29.30;71.40;;;;;;5071298;28;20024;-80
2022/07/18 11:46:11;;;;;;;2.65;1.85;;;29.40;72.60;;;;;;5073055;28;20027;-80
2022/07/18 11:48:38;;;;;;;2.35;2.15;;;29.50;71.40;;;;;;5071297;28;20043;-80
2022/07/18 11:51:10;;;;;;;4.55;2.28;;;29.60;70.90;;;;;;5072498;28;20107;-80
2022/07/18 11:53:41;;;;;;;6.97;1.80;;;29.70;70.00;;;;;;5072574;28;20033;-80
2022/07/18 11:56:07;;;;;;;3.85;1.98;;;29.70;69.40;;;;;;5073142;28;20392;-80
2022/07/18 11:58:37;;;;;;;2.33;1.88;;;29.80;69.00;;;;;;5072822;28;20032;-80
2022/07/18 12:01:03;;;;;;;4.32;2.20;;;29.90;70.20;;;;;;5071487;28;20465;-82
2022/07/18 12:03:29;;;;;;;4.32;2.42;;;29.90;71.20;;;;;;5072110;28;20100;-81
2022/07/18 12:05:55;;;;;;;4.68;2.20;;;30.00;70.80;;;;;;5071366;28;20040;-81
2022/07/18 12:08:34;;;;;;;3.90;2.70;;;30.00;69.60;;;;;;5071311;28;20476;-80
2022/07/18 12:11:09;;;;;;;4.10;2.42;;;30.10;67.70;;;;;;5071852;28;20032;-81
2022/07/18 12:13:43;;;;;;;3.47;2.10;;;30.10;68.10;;;;;;5083449;28;20035;-81
2022/07/18 12:16:36;;;;;;;3.95;2.00;;;30.00;68.10;;;;;;5083854;28;20024;-80
2022/07/18 12:19:17;;;;;;;4.88;2.13;;;30.20;68.90;;;;;;5075638;28;20071;-81
2022/07/18 12:21:49;;;;;;;2.53;2.25;;;30.20;68.80;;;;;;5090482;28;20020;-81
2022/07/18 12:24:39;;;;;;;3.88;3.03;;;30.30;69.30;;;;;;5092776;28;20024;-81
2022/07/18 12:27:23;;;;;;;2.83;2.22;;;30.30;67.40;;;;;;5079235;28;20024;-81
2022/07/18 12:30:20;;;;;;;3.97;2.47;;;30.50;66.90;;;;;;5078024;28;20448;-80
2022/07/18 12:32:58;;;;;;;6.38;2.47;;;30.50;68.20;;;;;;5093476;28;20426;-80
2022/07/18 12:35:34;;;;;;;3.00;2.28;;;30.70;67.30;;;;;;5087724;28;20025;-82
2022/07/18 12:38:05;;;;;;;3.45;2.40;;;30.80;67.50;;;;;;5085044;28;20036;-82
2022/07/18 12:40:58;;;;;;;4.65;2.50;;;30.90;67.80;;;;;;5092889;28;20091;-80
2022/07/18 12:43:32;;;;;;;3.10;2.13;;;31.00;67.20;;;;;;5094899;28;20047;-80
2022/07/18 12:46:00;;;;;;;3.53;2.80;;;31.10;67.80;;;;;;5096814;28;20027;-81
2022/07/18 12:48:30;;;;;;;9.00;4.05;;;31.30;67.30;;;;;;5096920;28;20043;-81
2022/07/18 12:51:03;;;;;;;;;;;31.30;66.80;;;;;;5096513;28;20399;-81